Time;durP1;ratioP1;P1;durP2;ratioP2;P2;SDS_P1;SDS_P2;PMS_P1;PMS_P2;Temp;Humidity;BMP_temperature;BMP_pressure;BME280_temperature;BME280_humidity;BME280_pressure;Samples;Min_cycle;Max_cycle;Signal;HPM_P1;HPM_P2
2023/02/20 00:02:59;;;;;;;40.45;24.23;;;13.20;99.90;;;;;;5028447;28;20052;-80
2023/02/20 00:06:03;;;;;;;38.78;23.65;;;12.80;99.90;;;;;;5028791;28;20037;-80
2023/02/20 00:09:07;;;;;;;40.20;24.50;;;15.80;99.90;;;;;;5028423;28;20090;-80
2023/02/20 00:12:11;;;;;;;43.13;25.67;;;10.20;99.90;;;;;;5028480;28;20045;-80
2023/02/20 00:15:20;;;;;;;39.55;24.98;;;13.20;99.90;;;;;;5027939;28;20053;-80
2023/02/20 00:18:24;;;;;;;47.13;24.80;;;;;;;;;;5028172;28;20039;-79
2023/02/20 00:21:28;;;;;;;44.40;24.77;;;13.50;99.90;;;;;;5028320;28;20649;-79
2023/02/20 00:24:33;;;;;;;42.35;26.02;;;;;;;;;;5028643;28;20060;-80
2023/02/20 00:27:37;;;;;;;43.65;28.05;;;13.40;99.90;;;;;;5028291;28;20048;-79
2023/02/20 00:30:41;;;;;;;47.83;26.83;;;13.60;99.90;;;;;;5032083;28;20530;-79
2023/02/20 00:33:45;;;;;;;50.67;26.25;;;13.20;99.90;;;;;;5027560;28;20040;-79
2023/02/20 00:36:49;;;;;;;43.90;27.38;;;12.50;99.90;;;;;;5028152;28;20056;-79
2023/02/20 00:39:53;;;;;;;40.20;26.73;;;;;;;;;;5027452;28;20045;-79
2023/02/20 00:42:58;;;;;;;42.00;25.45;;;;;;;;;;5027807;28;20057;-80
2023/02/20 00:46:02;;;;;;;45.25;27.15;;;;;;;;;;5028338;28;20038;-80
2023/02/20 00:49:06;;;;;;;49.13;28.13;;;13.40;99.90;;;;;;5028050;28;20072;-79
2023/02/20 00:52:23;;;;;;;48.05;29.95;;;;;;;;;;5028180;28;20053;-79
2023/02/20 00:55:27;;;;;;;45.65;29.17;;;;;;;;;;5028966;28;20056;-79
2023/02/20 00:58:31;;;;;;;45.75;30.58;;;13.30;99.90;;;;;;5031382;28;20044;-79
2023/02/20 01:01:35;;;;;;;54.22;33.67;;;;;;;;;;5031170;28;20049;-79
2023/02/20 01:04:40;;;;;;;54.40;34.75;;;;;;;;;;5031359;28;20495;-80
2023/02/20 01:07:47;;;;;;;56.67;37.88;;;;;;;;;;5019132;28;20060;-79
2023/02/20 01:10:51;;;;;;;69.03;38.20;;;;;;;;;;5031022;28;20041;-79
2023/02/20 01:13:55;;;;;;;60.33;37.55;;;13.00;99.90;;;;;;5031037;28;20052;-77
2023/02/20 01:17:00;;;;;;;57.15;39.28;;;;;;;;;;5030215;28;20057;-79
2023/02/20 01:20:05;;;;;;;63.17;39.38;;;13.10;99.90;;;;;;5030859;28;20040;-79
2023/02/20 01:23:09;;;;;;;57.58;40.70;;;12.90;99.90;;;;;;5031102;28;20041;-79
2023/02/20 01:26:13;;;;;;;62.47;40.10;;;13.00;99.90;;;;;;5029960;28;20032;-79
2023/02/20 01:29:18;;;;;;;68.93;40.45;;;10.50;99.90;;;;;;5029839;28;20048;-79
2023/02/20 01:32:22;;;;;;;65.72;42.42;;;13.20;99.90;;;;;;5030371;28;20044;-79
2023/02/20 01:35:29;;;;;;;62.53;42.15;;;;;;;;;;5029677;28;20053;-79
2023/02/20 01:38:33;;;;;;;63.72;41.45;;;14.20;99.90;;;;;;5029609;28;20136;-79
2023/02/20 01:41:39;;;;;;;62.10;39.72;;;;;;;;;;5029904;28;20041;-79
2023/02/20 01:44:43;;;;;;;64.18;40.55;;;;;;;;;;5030727;28;20049;-79
2023/02/20 01:47:51;;;;;;;64.95;42.80;;;13.20;99.90;;;;;;5030318;28;20228;-80
2023/02/20 01:50:59;;;;;;;64.15;40.72;;;13.20;99.90;;;;;;5029406;28;20048;-79
2023/02/20 01:54:07;;;;;;;55.55;40.40;;;15.90;99.90;;;;;;5030315;28;20045;-79
2023/02/20 01:57:19;;;;;;;61.33;39.38;;;15.60;99.90;;;;;;5030252;28;20044;-79
2023/02/20 02:00:23;;;;;;;63.13;40.60;;;;;;;;;;5029755;28;20060;-79
2023/02/20 02:03:31;;;;;;;59.53;39.78;;;14.20;99.90;;;;;;5030404;28;20044;-79
2023/02/20 02:06:40;;;;;;;60.25;38.70;;;14.50;99.90;;;;;;5030446;28;20064;-79
2023/02/20 02:09:58;;;;;;;58.72;39.03;;;13.30;99.90;;;;;;5030119;28;20044;-79
2023/02/20 02:13:06;;;;;;;58.70;39.90;;;;;;;;;;5029949;28;20048;-79
2023/02/20 02:16:41;;;;;;;64.57;42.33;;;13.30;99.90;;;;;;5029021;28;20056;-79
2023/02/20 02:19:55;;;;;;;62.33;40.03;;;13.20;99.90;;;;;;5029102;28;20094;-79
2023/02/20 02:23:35;;;;;;;58.90;40.38;;;12.20;99.90;;;;;;5029746;28;20393;-79
2023/02/20 02:27:16;;;;;;;59.05;39.85;;;14.70;99.90;;;;;;5017845;28;20068;-79
2023/02/20 02:30:34;;;;;;;57.22;37.80;;;13.50;99.90;;;;;;5029619;28;20037;-79
2023/02/20 02:34:10;;;;;;;62.08;39.50;;;13.20;99.90;;;;;;5029061;28;20048;-79
2023/02/20 02:37:15;;;;;;;67.38;39.42;;;;;;;;;;5029878;28;20064;-79
2023/02/20 02:40:30;;;;;;;60.42;38.92;;;13.00;99.90;;;;;;5017390;28;20045;-79
2023/02/20 02:43:55;;;;;;;61.30;38.47;;;13.10;99.90;;;;;;5029826;28;20202;-79
2023/02/20 02:47:08;;;;;;;66.93;40.13;;;13.10;99.90;;;;;;5028816;28;20492;-78
2023/02/20 02:50:25;;;;;;;64.43;39.30;;;13.00;99.90;;;;;;5017288;28;20064;-79
2023/02/20 02:53:29;;;;;;;66.78;40.55;;;13.30;99.90;;;;;;5028334;28;20207;-79
2023/02/20 02:56:35;;;;;;;63.72;39.35;;;12.80;99.90;;;;;;5028635;28;20597;-78
2023/02/20 02:59:41;;;;;;;61.10;39.53;;;;;;;;;;5028513;28;20048;-79
2023/02/20 03:02:54;;;;;;;58.00;40.35;;;13.00;99.90;;;;;;5017319;28;20044;-78
2023/02/20 03:05:59;;;;;;;58.17;40.05;;;;;;;;;;5029448;28;20052;-78
2023/02/20 03:09:14;;;;;;;56.85;38.58;;;13.60;99.90;;;;;;5029260;28;20059;-78
2023/02/20 03:12:19;;;;;;;58.55;38.70;;;12.80;99.90;;;;;;5029327;28;20115;-78
2023/02/20 03:15:35;;;;;;;62.53;39.92;;;12.70;99.90;;;;;;5028092;28;20080;-78
2023/02/20 03:18:40;;;;;;;66.38;39.00;;;12.00;99.90;;;;;;5027417;28;20045;-79
2023/02/20 03:21:47;;;;;;;59.83;37.95;;;12.60;99.90;;;;;;5027883;28;20048;-79
2023/02/20 03:24:55;;;;;;;56.47;38.60;;;12.80;99.90;;;;;;5029189;28;20045;-78
2023/02/20 03:28:40;;;;;;;53.70;36.80;;;12.70;99.90;;;;;;5028002;28;20053;-78
2023/02/20 03:46:07;;;;;;;52.08;35.35;;;12.60;99.90;;;;;;5020404;28;20512;-79
2023/02/20 03:49:16;;;;;;;48.97;34.15;;;11.60;99.90;;;;;;5027853;28;20056;-79
2023/02/20 03:52:23;;;;;;;54.00;33.17;;;;;;;;;;5027973;28;20052;-79
2023/02/20 03:55:27;;;;;;;52.92;32.10;;;;;;;;;;5028705;28;20056;-79
2023/02/20 03:58:39;;;;;;;42.40;29.00;;;12.50;99.90;;;;;;5027376;28;20401;-78
2023/02/20 04:01:47;;;;;;;38.20;26.63;;;12.40;99.90;;;;;;5028275;28;20041;-79
2023/02/20 04:04:57;;;;;;;38.67;25.90;;;12.40;99.90;;;;;;5027348;28;20048;-79
2023/02/20 04:08:30;;;;;;;43.22;26.48;;;12.30;99.90;;;;;;5028489;28;20492;-79
2023/02/20 04:11:47;;;;;;;40.22;25.58;;;12.50;99.90;;;;;;5027411;28;20056;-78
2023/02/20 04:14:55;;;;;;;42.13;25.67;;;12.40;99.90;;;;;;5027226;28;20057;-78
2023/02/20 04:18:12;;;;;;;45.20;28.65;;;12.20;99.90;;;;;;5027516;28;20061;-78
2023/02/20 04:21:44;;;;;;;47.50;31.67;;;12.90;99.90;;;;;;5027586;28;20056;-78
2023/02/20 04:24:58;;;;;;;45.65;31.20;;;12.00;99.90;;;;;;5027525;28;20385;-79
2023/02/20 04:28:06;;;;;;;50.63;32.40;;;;;;;;;;5027345;28;20048;-79
2023/02/20 04:31:21;;;;;;;51.22;32.22;;;12.20;99.90;;;;;;5026982;28;20045;-79
2023/02/20 04:34:27;;;;;;;54.20;34.25;;;;;;;;;;5027545;28;20478;-79
2023/02/20 04:37:31;;;;;;;51.03;35.22;;;11.90;99.90;;;;;;5015935;28;20049;-79
2023/02/20 04:40:36;;;;;;;64.93;31.58;;;11.90;99.90;;;;;;5027180;28;20045;-79
2023/02/20 04:43:40;;;;;;;49.28;31.77;;;11.90;99.90;;;;;;5027199;28;20397;-79
2023/02/20 04:46:44;;;;;;;46.38;33.08;;;11.70;99.90;;;;;;5027243;28;20048;-78
2023/02/20 04:49:48;;;;;;;45.90;31.70;;;11.70;99.90;;;;;;5027258;28;20045;-79
2023/02/20 04:52:58;;;;;;;41.58;29.95;;;11.60;99.90;;;;;;5027300;28;20060;-79
2023/02/20 04:56:03;;;;;;;52.15;30.02;;;11.50;99.90;;;;;;5015883;28;20057;-79
2023/02/20 04:59:09;;;;;;;45.67;31.30;;;11.40;99.90;;;;;;5027094;28;20045;-79
2023/02/20 05:02:14;;;;;;;46.33;31.70;;;;;;;;;;5026871;28;20068;-79
2023/02/20 05:05:24;;;;;;;57.22;31.77;;;11.60;99.90;;;;;;5027604;28;20037;-79
2023/02/20 05:08:30;;;;;;;55.55;29.77;;;11.50;99.90;;;;;;5027579;28;20044;-79
2023/02/20 05:11:34;;;;;;;50.10;30.00;;;11.60;99.90;;;;;;5027639;28;20504;-79
2023/02/20 05:14:38;;;;;;;43.60;27.80;;;11.40;99.90;;;;;;5026734;28;20524;-78
2023/02/20 05:17:42;;;;;;;48.13;28.35;;;11.30;99.90;;;;;;5027830;28;20057;-79
2023/02/20 05:24:09;;;;;;;44.10;28.50;;;10.70;99.90;;;;;;5027756;28;20048;-79
2023/02/20 05:27:14;;;;;;;49.42;30.45;;;11.30;99.90;;;;;;5027767;28;20538;-79
2023/02/20 05:30:18;;;;;;;50.72;29.17;;;11.10;99.90;;;;;;5027451;28;20040;-79
2023/02/20 05:33:22;;;;;;;39.85;26.48;;;11.00;99.90;;;;;;5027150;28;20044;-78
2023/02/20 05:36:26;;;;;;;42.58;25.48;;;11.30;99.90;;;;;;5027110;28;20057;-79
2023/02/20 05:39:30;;;;;;;49.88;28.67;;;11.20;99.90;;;;;;5027372;28;20060;-79
2023/02/20 05:42:34;;;;;;;49.97;28.95;;;11.20;99.90;;;;;;5030772;28;20048;-79
2023/02/20 05:45:38;;;;;;;43.67;28.17;;;10.90;99.90;;;;;;5030515;28;20048;-79
2023/02/20 05:48:42;;;;;;;40.97;27.33;;;11.10;99.90;;;;;;5030752;28;20060;-79
2023/02/20 05:51:48;;;;;;;43.78;26.63;;;11.10;99.90;;;;;;5030991;28;20044;-79
2023/02/20 05:54:53;;;;;;;42.55;25.40;;;;;;;;;;5030761;28;20053;-79
2023/02/20 05:57:57;;;;;;;45.05;27.92;;;11.00;99.90;;;;;;5030563;28;20075;-79
2023/02/20 06:01:01;;;;;;;41.65;25.63;;;11.00;99.90;;;;;;5030638;28;20139;-78
2023/02/20 06:04:05;;;;;;;47.35;26.88;;;11.00;99.90;;;;;;5029712;28;20064;-79
2023/02/20 06:07:09;;;;;;;48.08;26.10;;;11.10;99.90;;;;;;5030697;28;20060;-79
2023/02/20 06:10:15;;;;;;;44.35;25.67;;;11.00;99.90;;;;;;5030553;28;20393;-78
2023/02/20 06:13:19;;;;;;;42.67;26.65;;;11.00;99.90;;;;;;5030358;28;20056;-79
2023/02/20 06:16:26;;;;;;;44.15;25.55;;;11.10;99.90;;;;;;5029188;28;20052;-79
2023/02/20 06:19:30;;;;;;;43.05;24.60;;;11.10;99.90;;;;;;5029783;28;20393;-79
2023/02/20 06:22:34;;;;;;;46.13;27.48;;;11.20;99.90;;;;;;5029804;28;20048;-79
2023/02/20 06:25:38;;;;;;;41.80;26.40;;;11.30;99.90;;;;;;5029854;28;20056;-79
2023/02/20 06:28:42;;;;;;;40.42;25.27;;;11.50;99.90;;;;;;5029622;28;20049;-79
2023/02/20 06:31:46;;;;;;;43.33;25.95;;;11.70;99.90;;;;;;5030228;28;20448;-76
2023/02/20 06:34:50;;;;;;;43.67;25.23;;;12.00;99.90;;;;;;5029769;28;20045;-75
2023/02/20 06:37:55;;;;;;;34.53;21.65;;;12.30;99.90;;;;;;5030030;28;20052;-77
2023/02/20 06:40:59;;;;;;;36.33;19.98;;;12.40;99.90;;;;;;5029670;28;20052;-76
2023/02/20 06:44:04;;;;;;;31.10;16.67;;;12.60;99.90;;;;;;5029647;28;20041;-74
2023/02/20 06:47:08;;;;;;;25.60;17.17;;;;;;;;;;5029622;28;20060;-76
2023/02/20 06:50:12;;;;;;;27.55;17.52;;;12.90;99.90;;;;;;5029847;28;20040;-76
2023/02/20 06:53:16;;;;;;;20.58;15.80;;;13.10;99.90;;;;;;5028641;28;20040;-76
2023/02/20 06:56:27;;;;;;;44.03;26.83;;;13.20;99.90;;;;;;5029553;28;20516;-77
2023/02/20 06:59:31;;;;;;;100.47;58.70;;;10.80;99.90;;;;;;5029640;28;20048;-77
2023/02/20 07:02:35;;;;;;;92.75;52.67;;;16.70;99.90;;;;;;5029311;28;20056;-76
2023/02/20 07:05:40;;;;;;;70.30;41.47;;;;;;;;;;5029192;28;20057;-76
2023/02/20 07:08:44;;;;;;;31.15;20.35;;;;;;;;;;5028400;28;20048;-76
2023/02/20 07:11:49;;;;;;;29.35;18.20;;;13.80;99.10;;;;;;5029025;28;20140;-76
2023/02/20 07:14:53;;;;;;;31.25;16.60;;;;;;;;;;5028800;28;20056;-77
2023/02/20 07:17:57;;;;;;;31.95;18.73;;;;;;;;;;5028902;28;20045;-75
2023/02/20 07:21:02;;;;;;;27.48;16.80;;;;;;;;;;5029049;28;20045;-74
2023/02/20 07:24:06;;;;;;;28.65;18.30;;;16.60;99.30;;;;;;5029085;28;20048;-73
2023/02/20 07:27:12;;;;;;;83.05;47.35;;;;;;;;;;5028660;28;20496;-73
2023/02/20 07:30:16;;;;;;;127.40;68.47;;;15.00;97.70;;;;;;5028939;28;20044;-74
2023/02/20 07:33:20;;;;;;;86.00;45.83;;;;;;;;;;5028601;28;20139;-75
2023/02/20 07:36:25;;;;;;;33.40;19.38;;;14.60;97.70;;;;;;5028471;28;20064;-75
2023/02/20 07:39:29;;;;;;;39.78;20.35;;;14.30;97.90;;;;;;5028754;28;20045;-76
2023/02/20 07:42:33;;;;;;;38.20;20.80;;;18.80;99.20;;;;;;5016582;28;20056;-73
2023/02/20 07:45:50;;;;;;;31.40;20.08;;;14.80;98.10;;;;;;5028822;28;20040;-77
2023/02/20 07:48:54;;;;;;;26.98;15.65;;;15.10;97.40;;;;;;5028618;28;20041;-75
2023/02/20 07:51:58;;;;;;;22.90;15.70;;;15.40;97.00;;;;;;5028120;28;20052;-78
2023/02/20 07:55:02;;;;;;;58.60;30.27;;;18.00;97.50;;;;;;5028637;28;20057;-76
2023/02/20 07:58:07;;;;;;;53.70;27.30;;;14.70;97.00;;;;;;5028479;28;20134;-75
2023/02/20 08:01:11;;;;;;;26.20;14.35;;;15.20;97.10;;;;;;5028944;28;20098;-79
2023/02/20 08:04:16;;;;;;;24.00;16.08;;;15.50;97.10;;;;;;5028408;28;20052;-80
2023/02/20 08:07:20;;;;;;;27.98;15.20;;;15.50;96.60;;;;;;5028383;28;20041;-76
2023/02/20 08:10:26;;;;;;;21.65;13.80;;;15.60;96.80;;;;;;5027675;28;20056;-78
2023/02/20 08:13:30;;;;;;;24.75;14.73;;;15.70;97.20;;;;;;5028390;28;20393;-77
2023/02/20 08:16:34;;;;;;;25.83;14.45;;;16.00;96.80;;;;;;5028531;28;20048;-79
2023/02/20 08:19:38;;;;;;;30.80;15.27;;;16.10;96.60;;;;;;5028988;28;20040;-79
2023/02/20 08:22:44;;;;;;;24.30;13.27;;;16.20;96.30;;;;;;5028742;28;20053;-78
2023/02/20 08:25:48;;;;;;;20.73;12.98;;;16.30;96.50;;;;;;5028396;28;20423;-78
2023/02/20 08:28:52;;;;;;;21.27;12.50;;;16.30;95.70;;;;;;5028563;28;20503;-75
2023/02/20 08:31:56;;;;;;;19.42;12.40;;;16.30;96.30;;;;;;5029302;28;20037;-75
2023/02/20 08:35:00;;;;;;;20.77;11.38;;;16.40;95.80;;;;;;5028827;28;20388;-81
2023/02/20 08:38:06;;;;;;;18.85;12.02;;;16.50;95.20;;;;;;5028753;28;20160;-78
2023/02/20 08:41:12;;;;;;;17.13;10.70;;;16.60;95.30;;;;;;5028752;28;20052;-80
2023/02/20 08:44:16;;;;;;;22.30;9.95;;;16.70;95.30;;;;;;5028286;28;20060;-78
2023/02/20 08:47:20;;;;;;;17.52;9.80;;;16.90;95.20;;;;;;5028406;28;20064;-78
2023/02/20 08:50:24;;;;;;;16.00;10.45;;;17.00;95.50;;;;;;5027913;28;20053;-77
2023/02/20 08:53:30;;;;;;;16.20;9.90;;;17.10;95.00;;;;;;5027911;28;20398;-74
2023/02/20 08:56:34;;;;;;;15.45;10.18;;;17.30;95.10;;;;;;5027454;28;20060;-78
2023/02/20 08:59:38;;;;;;;20.50;11.38;;;17.40;94.30;;;;;;5027892;28;20053;-78
2023/02/20 09:02:42;;;;;;;25.40;9.43;;;17.40;94.20;;;;;;5027803;28;20064;-75
2023/02/20 09:05:46;;;;;;;14.52;8.90;;;17.40;94.50;;;;;;5028052;28;20049;-76
2023/02/20 09:08:51;;;;;;;14.65;9.57;;;17.60;94.60;;;;;;5027740;28;20500;-76
2023/02/20 09:11:55;;;;;;;12.88;8.10;;;17.80;94.30;;;;;;5028047;28;20516;-76
2023/02/20 09:15:00;;;;;;;13.80;9.18;;;18.00;94.10;;;;;;5027818;28;20061;-79
2023/02/20 09:18:05;;;;;;;18.33;10.15;;;18.20;94.00;;;;;;5031518;28;20052;-77
2023/02/20 09:21:11;;;;;;;17.60;9.85;;;18.30;93.70;;;;;;5031043;28;20478;-77
2023/02/20 09:24:16;;;;;;;13.98;8.70;;;18.40;93.50;;;;;;5031627;28;20049;-78
2023/02/20 09:27:20;;;;;;;22.45;11.02;;;18.40;93.30;;;;;;5031794;28;20048;-78
2023/02/20 09:30:24;;;;;;;23.52;10.50;;;18.20;92.90;;;;;;5031552;28;20056;-77
2023/02/20 09:33:28;;;;;;;15.88;9.45;;;18.20;93.10;;;;;;5031415;28;20401;-78
2023/02/20 09:36:32;;;;;;;17.83;9.68;;;18.30;93.20;;;;;;5030939;28;20048;-76
2023/02/20 09:39:36;;;;;;;24.40;9.70;;;18.50;92.80;;;;;;5031323;28;20052;-76
2023/02/20 09:43:18;;;;;;;15.15;8.88;;;18.60;92.50;;;;;;5030694;28;20044;-76
2023/02/20 09:46:24;;;;;;;15.98;9.48;;;18.80;92.30;;;;;;5030475;28;20036;-74
2023/02/20 09:49:33;;;;;;;17.55;9.23;;;19.00;92.30;;;;;;5030414;28;20049;-74
2023/02/20 09:52:39;;;;;;;19.00;8.88;;;19.20;91.90;;;;;;5030246;28;20041;-74
2023/02/20 09:55:44;;;;;;;19.15;10.60;;;19.30;91.30;;;;;;5030482;28;20050;-74
2023/02/20 09:58:59;;;;;;;19.17;10.82;;;19.40;90.90;;;;;;5029925;28;20511;-73
2023/02/20 10:02:09;;;;;;;22.02;11.88;;;19.30;90.80;;;;;;5030229;28;20044;-74
2023/02/20 10:05:26;;;;;;;15.20;9.57;;;19.20;91.00;;;;;;5030232;28;20053;-74
2023/02/20 10:08:30;;;;;;;21.02;10.57;;;19.30;91.00;;;;;;5030061;28;20380;-72
2023/02/20 10:12:08;;;;;;;23.00;11.60;;;19.40;90.70;;;;;;5030281;28;20404;-75
2023/02/20 10:15:47;;;;;;;23.35;11.43;;;19.50;90.50;;;;;;5029634;28;20068;-75
2023/02/20 10:19:20;;;;;;;18.88;8.65;;;19.50;90.30;;;;;;5030749;28;20377;-76
2023/02/20 10:22:27;;;;;;;19.13;8.70;;;19.70;90.30;;;;;;5030475;28;20044;-77
2023/02/20 10:25:40;;;;;;;15.90;9.52;;;20.10;89.20;;;;;;5031025;28;20048;-76
2023/02/20 10:28:50;;;;;;;18.38;10.68;;;20.20;88.60;;;;;;5029023;28;20041;-76
2023/02/20 10:32:15;;;;;;;17.65;10.73;;;20.30;87.20;;;;;;5029980;28;20045;-77
2023/02/20 10:35:53;;;;;;;16.38;9.38;;;20.10;88.30;;;;;;5029274;28;20045;-77
2023/02/20 10:39:09;;;;;;;24.13;11.38;;;20.30;88.20;;;;;;5029898;28;20056;-76
2023/02/20 10:42:30;;;;;;;16.42;9.23;;;20.40;86.30;;;;;;5030165;28;20076;-75
2023/02/20 10:45:51;;;;;;;17.07;8.63;;;20.50;86.50;;;;;;5029254;28;20146;-75
2023/02/20 10:48:59;;;;;;;22.77;10.38;;;20.60;86.20;;;;;;5029410;28;20601;-75
2023/02/20 10:52:09;;;;;;;14.05;10.75;;;20.70;85.00;;;;;;5028754;28;20613;-76
2023/02/20 10:55:48;;;;;;;25.50;10.63;;;20.70;84.30;;;;;;5029406;28;20060;-75
2023/02/20 10:59:18;;;;;;;22.88;10.68;;;20.70;84.80;;;;;;5029068;28;20060;-75
2023/02/20 11:02:26;;;;;;;18.42;11.82;;;20.60;83.80;;;;;;5029819;28;20500;-76
2023/02/20 11:05:34;;;;;;;21.20;13.05;;;20.40;85.00;;;;;;5029680;28;20052;-77
2023/02/20 11:08:38;;;;;;;24.23;13.82;;;20.10;85.80;;;;;;5029171;28;20403;-77
2023/02/20 11:11:45;;;;;;;28.48;14.82;;;19.90;86.40;;;;;;5028325;28;20045;-77
2023/02/20 11:14:52;;;;;;;25.70;12.27;;;19.70;86.90;;;;;;5029035;28;20053;-77
2023/02/20 11:17:58;;;;;;;14.82;10.35;;;19.70;87.90;;;;;;5028872;28;20053;-77
2023/02/20 11:21:01;;;;;;;17.70;10.05;;;19.70;87.10;;;;;;5028893;28;20061;-75
2023/02/20 11:24:26;;;;;;;15.50;9.18;;;19.60;85.90;;;;;;5029013;28;20064;-79
2023/02/20 11:27:33;;;;;;;11.95;7.40;;;19.60;85.30;;;;;;5028905;28;20052;-75
2023/02/20 11:30:40;;;;;;;14.05;8.32;;;19.40;83.60;;;;;;5028936;28;20408;-75
2023/02/20 11:33:46;;;;;;;20.80;12.02;;;19.30;84.00;;;;;;5028797;28;20504;-76
2023/02/20 11:36:53;;;;;;;20.13;12.27;;;19.20;85.30;;;;;;5028884;28;20059;-76
2023/02/20 11:39:59;;;;;;;22.90;12.80;;;19.10;86.50;;;;;;5028443;28;20052;-76
2023/02/20 11:43:19;;;;;;;13.88;10.60;;;19.20;88.10;;;;;;5028879;28;20052;-76
2023/02/20 11:46:23;;;;;;;19.23;12.48;;;19.30;87.50;;;;;;5028680;28;20056;-77
2023/02/20 11:49:29;;;;;;;18.83;11.23;;;19.30;87.50;;;;;;5028427;28;20044;-76
2023/02/20 11:52:33;;;;;;;12.88;8.05;;;19.30;87.80;;;;;;5028411;28;20048;-78
2023/02/20 11:55:37;;;;;;;13.20;6.50;;;19.40;87.20;;;;;;5027240;28;20048;-78
2023/02/20 11:58:42;;;;;;;9.60;6.20;;;19.40;85.20;;;;;;5028192;28;20516;-76
2023/02/20 12:01:46;;;;;;;12.57;6.93;;;19.50;85.00;;;;;;5028766;28;20041;-78
2023/02/20 12:05:09;;;;;;;9.10;6.03;;;19.40;84.50;;;;;;5028757;28;20052;-76
2023/02/20 12:08:27;;;;;;;10.73;5.90;;;19.40;84.80;;;;;;5028368;28;20052;-76
2023/02/20 12:11:31;;;;;;;10.63;6.07;;;19.30;85.40;;;;;;5028634;28;20044;-76
2023/02/20 12:14:35;;;;;;;10.95;5.90;;;19.40;85.70;;;;;;5028116;28;20065;-76
2023/02/20 12:17:52;;;;;;;12.43;6.72;;;19.40;85.50;;;;;;5028118;28;20076;-75
2023/02/20 12:21:34;;;;;;;9.48;5.03;;;19.40;84.20;;;;;;5028134;28;20044;-75
2023/02/20 12:25:06;;;;;;;10.63;5.45;;;19.40;83.50;;;;;;5028034;28;20052;-76
2023/02/20 12:28:15;;;;;;;10.93;5.30;;;19.40;83.10;;;;;;5028333;28;20491;-76
2023/02/20 12:31:25;;;;;;;8.88;4.63;;;19.40;82.40;;;;;;5028445;28;20050;-76
2023/02/20 12:34:38;;;;;;;13.20;6.10;;;19.40;83.10;;;;;;5028025;28;20064;-77
2023/02/20 12:38:11;;;;;;;11.00;6.07;;;19.40;83.00;;;;;;5028537;28;20063;-77
2023/02/20 12:41:48;;;;;;;10.73;5.75;;;19.30;83.10;;;;;;5027904;28;20051;-77
2023/02/20 12:45:16;;;;;;;16.17;6.95;;;19.30;83.30;;;;;;5028083;28;20049;-74
2023/02/20 12:48:53;;;;;;;11.88;5.35;;;19.30;82.60;;;;;;5028300;28;20057;-75
2023/02/20 12:52:34;;;;;;;6.53;4.93;;;19.20;82.60;;;;;;5031390;28;20036;-75
2023/02/20 12:56:16;;;;;;;9.82;5.93;;;19.20;82.80;;;;;;5031710;28;20053;-75
2023/02/20 12:59:23;;;;;;;9.43;5.53;;;19.10;82.70;;;;;;5031768;28;20065;-75
2023/02/20 13:02:37;;;;;;;9.98;5.75;;;19.10;83.50;;;;;;5031283;28;20057;-76
2023/02/20 13:05:43;;;;;;;11.02;6.00;;;19.10;84.20;;;;;;5031043;28;20064;-75
2023/02/20 13:09:16;;;;;;;14.07;6.28;;;19.10;84.10;;;;;;5029361;28;20048;-76
2023/02/20 13:12:21;;;;;;;7.88;5.63;;;19.00;84.30;;;;;;5030683;28;20053;-76
2023/02/20 13:15:54;;;;;;;11.05;5.82;;;19.00;84.50;;;;;;5030143;28;20065;-75
2023/02/20 13:19:13;;;;;;;10.27;5.28;;;19.00;84.80;;;;;;5030690;28;20044;-76
2023/02/20 13:22:17;;;;;;;10.70;6.10;;;19.00;85.20;;;;;;5031183;28;20044;-76
2023/02/20 13:25:38;;;;;;;12.23;8.25;;;19.00;85.00;;;;;;5031064;28;20496;-76
2023/02/20 13:28:44;;;;;;;25.40;12.55;;;18.90;85.30;;;;;;5030829;28;20045;-76
2023/02/20 13:31:51;;;;;;;28.73;16.13;;;18.90;85.40;;;;;;5030178;28;20048;-78
2023/02/20 13:35:43;;;;;;;13.57;8.00;;;18.90;85.50;;;;;;5030634;28;20049;-77
2023/02/20 13:39:19;;;;;;;12.55;6.05;;;18.90;85.20;;;;;;5030596;28;20412;-76
2023/02/20 13:42:29;;;;;;;8.38;4.97;;;18.80;84.80;;;;;;5037001;28;20040;-76
2023/02/20 13:45:47;;;;;;;9.95;4.88;;;18.80;85.00;;;;;;5030641;28;20044;-77
2023/02/20 13:48:52;;;;;;;9.57;5.10;;;18.80;85.00;;;;;;5030317;28;20041;-77
2023/02/20 13:51:56;;;;;;;10.57;5.40;;;18.70;84.80;;;;;;5030367;28;20653;-76
2023/02/20 13:55:10;;;;;;;6.78;4.28;;;18.60;83.90;;;;;;5030372;28;20044;-76
2023/02/20 13:58:15;;;;;;;10.25;5.03;;;18.60;84.10;;;;;;5030030;28;20054;-77
2023/02/20 14:01:19;;;;;;;9.43;4.35;;;18.60;82.30;;;;;;5030284;28;20048;-76
2023/02/20 14:04:24;;;;;;;8.93;4.53;;;18.50;82.90;;;;;;5030384;28;20048;-76
2023/02/20 14:07:39;;;;;;;8.18;4.68;;;18.50;84.10;;;;;;5029902;28;20075;-77
2023/02/20 14:10:46;;;;;;;11.57;4.88;;;18.50;85.00;;;;;;5030105;28;20041;-77
2023/02/20 14:13:52;;;;;;;10.88;4.65;;;18.40;85.70;;;;;;5030261;28;20045;-77
2023/02/20 14:17:23;;;;;;;8.52;4.88;;;18.40;86.10;;;;;;5029858;28;20530;-76
2023/02/20 14:20:35;;;;;;;13.52;6.70;;;18.40;86.80;;;;;;5030034;28;20041;-76
2023/02/20 14:23:40;;;;;;;14.88;6.47;;;18.40;86.50;;;;;;5029963;28;20404;-76
2023/02/20 14:26:44;;;;;;;10.90;6.55;;;18.40;86.60;;;;;;5029800;28;20060;-76
2023/02/20 14:30:05;;;;;;;10.95;6.10;;;18.30;87.20;;;;;;5029427;28;20045;-77
2023/02/20 14:33:24;;;;;;;12.07;5.80;;;18.30;87.90;;;;;;5030038;28;20091;-76
2023/02/20 14:36:53;;;;;;;18.30;6.22;;;18.30;88.10;;;;;;5029893;28;20118;-77
2023/02/20 14:40:03;;;;;;;11.27;5.45;;;18.20;88.50;;;;;;5029652;28;20236;-76
2023/02/20 14:43:23;;;;;;;12.65;5.68;;;18.10;88.70;;;;;;5029812;28;20052;-77
2023/02/20 14:46:29;;;;;;;10.23;5.13;;;18.00;88.60;;;;;;5029987;28;20139;-77
2023/02/20 14:49:33;;;;;;;16.98;5.85;;;18.00;88.10;;;;;;5028600;28;20048;-77
2023/02/20 14:52:38;;;;;;;16.70;5.82;;;17.90;88.40;;;;;;5029634;28;20048;-75
2023/02/20 14:55:43;;;;;;;14.77;6.70;;;18.00;88.90;;;;;;5027956;28;20048;-76
2023/02/20 14:58:46;;;;;;;22.70;8.18;;;17.90;89.40;;;;;;5025609;28;20061;-75
2023/02/20 15:01:55;;;;;;;15.70;6.80;;;17.90;90.00;;;;;;5027577;28;20044;-75
2023/02/20 15:05:18;;;;;;;12.93;6.38;;;17.80;90.30;;;;;;5028359;28;20053;-74
2023/02/20 15:08:26;;;;;;;13.35;7.10;;;17.80;90.10;;;;;;5029054;28;20504;-74
2023/02/20 15:11:31;;;;;;;20.27;7.75;;;17.70;90.00;;;;;;5028394;28;20045;-74
2023/02/20 15:14:42;;;;;;;17.65;8.43;;;17.70;90.60;;;;;;5028143;28;20072;-73
2023/02/20 15:17:46;;;;;;;14.40;8.18;;;17.70;91.60;;;;;;5029228;28;20056;-73
2023/02/20 15:20:50;;;;;;;22.15;9.95;;;17.60;92.20;;;;;;5029319;28;20086;-74
2023/02/20 15:23:54;;;;;;;21.08;10.10;;;17.60;92.70;;;;;;5029332;28;20076;-73
2023/02/20 15:27:10;;;;;;;19.08;11.25;;;17.50;92.90;;;;;;5028227;28;20064;-72
2023/02/20 15:30:17;;;;;;;24.25;12.20;;;17.50;93.00;;;;;;5027284;28;20044;-73
2023/02/20 15:33:20;;;;;;;21.65;10.77;;;17.40;93.20;;;;;;5026285;28;20045;-74
2023/02/20 15:36:25;;;;;;;19.90;10.30;;;17.30;93.00;;;;;;5027283;28;20101;-74
2023/02/20 15:39:29;;;;;;;23.13;11.73;;;17.30;93.00;;;;;;5027351;28;20054;-74
2023/02/20 15:42:33;;;;;;;21.77;11.63;;;17.30;93.20;;;;;;5028125;28;20064;-74
2023/02/20 15:45:38;;;;;;;19.83;11.93;;;17.20;93.70;;;;;;5028828;28;20045;-74
2023/02/20 15:48:42;;;;;;;19.40;11.80;;;17.10;93.90;;;;;;5028791;28;20033;-72
2023/02/20 15:51:48;;;;;;;32.30;13.48;;;17.00;94.20;;;;;;5027546;28;20048;-72
2023/02/20 15:54:54;;;;;;;32.03;14.93;;;16.90;94.10;;;;;;5027909;28;20084;-73
2023/02/20 15:57:59;;;;;;;28.20;13.60;;;16.90;94.40;;;;;;5027408;28;20069;-73
2023/02/20 16:01:04;;;;;;;21.95;11.93;;;16.80;94.70;;;;;;5028723;28;20040;-73
2023/02/20 16:04:09;;;;;;;21.02;12.90;;;16.80;94.70;;;;;;5028572;28;20045;-73
2023/02/20 16:07:15;;;;;;;25.27;12.75;;;16.70;94.50;;;;;;5028410;28;20040;-73
2023/02/20 16:10:31;;;;;;;22.60;13.45;;;16.70;94.40;;;;;;5028470;28;20052;-73
2023/02/20 16:13:39;;;;;;;56.05;20.23;;;16.60;94.50;;;;;;5028102;28;20072;-73
2023/02/20 16:16:46;;;;;;;148.90;21.58;;;16.60;94.80;;;;;;5027684;28;20132;-73
2023/02/20 16:19:50;;;;;;;97.65;17.55;;;16.60;95.10;;;;;;5027191;28;20052;-73
2023/02/20 16:22:55;;;;;;;97.53;18.83;;;16.50;94.70;;;;;;5026993;28;20052;-73
2023/02/20 16:26:00;;;;;;;55.50;15.35;;;16.40;95.00;;;;;;5027426;28;20059;-73
2023/02/20 16:29:26;;;;;;;67.10;16.20;;;16.40;95.00;;;;;;5027412;28;20064;-73
2023/02/20 16:32:30;;;;;;;59.50;16.88;;;16.40;95.00;;;;;;5027090;28;20084;-73
2023/02/20 16:35:35;;;;;;;59.55;17.42;;;16.30;95.10;;;;;;5027614;28;20512;-72
2023/02/20 16:38:38;;;;;;;73.68;17.27;;;16.30;95.30;;;;;;5027710;28;20115;-73